createdAt,value
2023-04-01T00:02:10.686Z,1.30
2023-04-01T00:04:42.930Z,1.30
2023-04-01T00:07:15.185Z,1.30
2023-04-01T00:09:47.369Z,1.60
2023-04-01T00:12:19.895Z,1.40
2023-04-01T00:14:52.300Z,1.20
2023-04-01T00:17:24.463Z,1.20
2023-04-01T00:19:57.269Z,1.52
2023-04-01T00:22:29.660Z,1.42
2023-04-01T00:25:02.179Z,1.67
2023-04-01T00:27:35.731Z,1.35
2023-04-01T00:30:08.707Z,1.17
2023-04-01T00:32:41.265Z,1.33
2023-04-01T00:35:13.665Z,2.03
2023-04-01T00:37:45.847Z,1.30
2023-04-01T00:40:34.401Z,1.30
2023-04-01T00:43:19.333Z,1.30
2023-04-01T00:45:52.096Z,1.40
2023-04-01T00:48:29.897Z,1.60
2023-04-01T00:51:10.030Z,1.40
2023-04-01T00:53:52.061Z,1.30
2023-04-01T00:56:37.992Z,1.38
2023-04-01T00:59:31.316Z,1.40
2023-04-01T01:02:10.331Z,1.20
2023-04-01T01:04:43.882Z,1.40
2023-04-01T01:07:41.994Z,1.45
2023-04-01T01:10:39.297Z,1.50
2023-04-01T01:13:15.797Z,1.20
2023-04-01T01:16:05.425Z,1.20
2023-04-01T01:19:00.170Z,1.70
2023-04-01T01:21:52.055Z,1.23
2023-04-01T01:24:57.533Z,1.58
2023-04-01T01:27:50.342Z,1.33
2023-04-01T01:31:03.660Z,1.30
2023-04-01T01:34:03.204Z,1.20
2023-04-01T01:36:59.076Z,1.30
2023-04-01T01:39:36.963Z,1.20
2023-04-01T01:42:14.176Z,1.50
2023-04-01T01:44:50.969Z,1.17
2023-04-01T01:47:25.703Z,1.25
2023-04-01T01:50:00.845Z,1.30
2023-04-01T01:52:34.132Z,1.15
2023-04-01T01:55:29.687Z,1.10
2023-04-01T01:58:29.435Z,1.30
2023-04-01T02:01:20.501Z,1.30
2023-04-01T02:03:58.658Z,1.20
2023-04-01T02:06:35.907Z,1.80
2023-04-01T02:09:12.309Z,1.25
2023-04-01T02:11:48.902Z,1.27
2023-04-01T02:14:53.780Z,1.00
2023-04-01T02:17:32.523Z,1.10
2023-04-01T02:20:18.788Z,1.45
2023-04-01T02:22:55.876Z,1.30
2023-04-01T02:25:37.381Z,1.10
2023-04-01T02:28:12.872Z,1.30
2023-04-01T02:30:46.122Z,1.10
2023-04-01T02:33:20.978Z,1.00
2023-04-01T02:35:53.212Z,1.17
2023-04-01T02:38:25.482Z,1.10
2023-04-01T02:41:01.368Z,1.15
2023-04-01T02:43:34.376Z,1.17
2023-04-01T02:46:07.291Z,1.20
2023-04-01T02:48:39.398Z,1.10
2023-04-01T02:51:11.541Z,1.00
2023-04-01T02:53:43.690Z,1.10
2023-04-01T02:56:15.953Z,1.10
2023-04-01T02:58:48.340Z,1.10
2023-04-01T03:01:21.571Z,1.30
2023-04-01T03:03:53.740Z,1.10
2023-04-01T03:06:26.007Z,1.10
2023-04-01T03:08:58.038Z,1.10
2023-04-01T03:11:30.024Z,1.13
2023-04-01T03:14:02.027Z,1.10
2023-04-01T03:16:34.215Z,1.10
2023-04-01T03:19:06.205Z,1.00
2023-04-01T03:21:38.513Z,1.00
2023-04-01T03:24:10.738Z,1.00
2023-04-01T03:26:42.762Z,1.00
2023-04-01T03:29:16.653Z,1.10
2023-04-01T03:31:48.613Z,1.10
2023-04-01T03:34:20.533Z,1.23
2023-04-01T03:36:53.278Z,1.10
2023-04-01T03:39:26.157Z,1.00
2023-04-01T03:41:58.290Z,1.05
2023-04-01T03:44:34.763Z,1.35
2023-04-01T03:47:07.033Z,1.10
2023-04-01T03:49:40.895Z,1.25
2023-04-01T03:52:13.267Z,1.20
2023-04-01T03:54:45.565Z,1.00
2023-04-01T03:57:17.652Z,1.00
2023-04-01T03:59:49.846Z,1.10
2023-04-01T04:02:21.935Z,1.02
2023-04-01T04:04:53.898Z,1.30
2023-04-01T04:07:26.041Z,1.40
2023-04-01T04:09:58.229Z,1.30
2023-04-01T04:12:30.301Z,1.10
2023-04-01T04:15:02.576Z,1.00
2023-04-01T04:17:35.272Z,1.30
2023-04-01T04:20:08.683Z,1.10
2023-04-01T04:22:41.176Z,1.10
2023-04-01T04:25:13.335Z,1.10
2023-04-01T04:27:45.412Z,1.10
2023-04-01T04:30:17.679Z,1.20
2023-04-01T04:32:49.768Z,1.00
2023-04-01T04:35:21.874Z,1.35
2023-04-01T04:37:54.255Z,1.20
2023-04-01T04:40:26.501Z,0.98
2023-04-01T04:42:58.442Z,1.10
2023-04-01T04:45:31.213Z,1.20
2023-04-01T04:48:03.856Z,1.20
2023-04-01T04:50:36.711Z,1.10
2023-04-01T04:53:11.587Z,1.20
2023-04-01T04:55:48.964Z,1.13
2023-04-01T04:58:21.822Z,1.10
2023-04-01T05:00:53.886Z,1.20
2023-04-01T05:03:26.313Z,1.50
2023-04-01T05:05:58.374Z,1.20
2023-04-01T05:08:30.431Z,1.20
2023-04-01T05:11:03.579Z,1.30
2023-04-01T05:13:38.788Z,1.10
2023-04-01T05:16:13.811Z,1.48
2023-04-01T05:18:48.847Z,1.25
2023-04-01T05:21:21.122Z,1.40
2023-04-01T05:23:53.163Z,1.38
2023-04-01T05:26:25.190Z,1.40
2023-04-01T05:28:57.413Z,1.15
2023-04-01T05:31:29.649Z,1.30
2023-04-01T05:34:02.555Z,1.33
2023-04-01T05:36:35.339Z,1.30
2023-04-01T05:39:07.756Z,1.45
2023-04-01T05:41:41.369Z,1.20
2023-04-01T05:44:13.693Z,1.40
2023-04-01T05:46:45.944Z,1.10
2023-04-01T05:49:18.253Z,1.10
2023-04-01T05:51:50.468Z,1.20
2023-04-01T05:54:23.492Z,1.20
2023-04-01T05:56:55.590Z,1.30
2023-04-01T05:59:27.761Z,1.17
2023-04-01T06:02:00.119Z,1.10
2023-04-01T06:04:39.407Z,1.23
2023-04-01T06:07:14.247Z,1.33
2023-04-01T06:09:48.745Z,1.08
2023-04-01T06:13:00.807Z,1.20
2023-04-01T06:16:03.556Z,1.40
2023-04-01T06:19:00.913Z,1.00
2023-04-01T06:22:17.726Z,1.10
2023-04-01T06:25:34.945Z,1.50
2023-04-01T06:28:45.247Z,1.30
2023-04-01T06:32:27.979Z,1.20
2023-04-01T06:35:42.760Z,1.75
2023-04-01T06:38:37.383Z,1.00
2023-04-01T06:42:00.218Z,1.20
2023-04-01T06:45:28.364Z,1.25
2023-04-01T06:48:16.730Z,1.10
2023-04-01T06:51:35.085Z,1.10
2023-04-01T06:54:56.008Z,1.10
2023-04-01T06:57:38.182Z,1.00
2023-04-01T07:00:58.229Z,1.20
2023-04-01T07:03:40.035Z,1.25
2023-04-01T07:06:41.255Z,1.15
2023-04-01T07:09:36.042Z,1.20
2023-04-01T07:12:22.809Z,1.30
2023-04-01T07:15:17.658Z,1.38
2023-04-01T07:18:03.116Z,1.38
2023-04-01T07:20:44.296Z,1.10
2023-04-01T07:23:21.240Z,1.20
2023-04-01T07:26:01.644Z,1.00
2023-04-01T07:28:46.814Z,1.00
2023-04-01T07:31:46.774Z,1.08
2023-04-01T07:34:52.435Z,1.00
2023-04-01T07:38:11.979Z,1.10
2023-04-01T07:41:43.636Z,0.90
2023-04-01T07:45:00.609Z,1.20
2023-04-01T07:48:27.061Z,1.10
2023-04-01T07:51:30.451Z,0.90
2023-04-01T07:54:29.657Z,1.10
2023-04-01T07:57:36.846Z,1.25
2023-04-01T08:00:41.243Z,0.98
2023-04-01T08:03:55.207Z,1.20
2023-04-01T08:06:50.972Z,1.13
2023-04-01T08:10:05.839Z,0.90
2023-04-01T08:13:56.287Z,1.00
2023-04-01T08:17:01.683Z,1.00
2023-04-01T08:20:01.701Z,1.10
2023-04-01T08:23:13.557Z,1.73
2023-04-01T08:26:31.763Z,1.33
2023-04-01T08:29:19.393Z,1.10
2023-04-01T08:32:36.279Z,1.00
2023-04-01T08:35:39.019Z,1.02
2023-04-01T08:38:29.595Z,1.17
2023-04-01T08:41:09.586Z,1.45
2023-04-01T08:44:07.285Z,1.17
2023-04-01T08:47:34.332Z,0.90
2023-04-01T08:51:15.323Z,1.85
2023-04-01T08:54:34.321Z,1.35
2023-04-01T08:58:04.806Z,1.45
2023-04-01T09:01:37.495Z,1.10
2023-04-01T09:04:57.925Z,1.33
2023-04-01T09:08:11.492Z,1.05
2023-04-01T09:11:30.103Z,1.13
2023-04-01T09:14:28.396Z,1.38
2023-04-01T09:17:57.652Z,1.20
2023-04-01T09:21:14.534Z,1.10
2023-04-01T09:24:24.278Z,1.20
2023-04-01T09:27:32.430Z,1.15
2023-04-01T09:30:49.258Z,1.17
2023-04-01T09:34:09.417Z,1.00
2023-04-01T09:37:03.538Z,1.00
2023-04-01T09:40:04.717Z,1.05
2023-04-01T09:43:23.887Z,1.00
2023-04-01T09:46:37.532Z,0.90
2023-04-01T09:50:02.585Z,1.17
2023-04-01T09:53:01.866Z,1.10
2023-04-01T09:56:07.322Z,1.10
2023-04-01T09:59:44.508Z,1.05
2023-04-01T10:02:48.730Z,1.02
2023-04-01T10:06:10.573Z,1.00
2023-04-01T10:09:28.398Z,0.90
2023-04-01T10:12:43.311Z,0.90
2023-04-01T10:15:47.414Z,0.90
2023-04-01T10:18:45.165Z,0.82
2023-04-01T10:22:15.065Z,1.05
2023-04-01T10:25:30.346Z,0.85
2023-04-01T10:28:35.738Z,0.90
2023-04-01T10:31:48.547Z,1.00
2023-04-01T10:34:52.281Z,0.80
2023-04-01T10:37:47.216Z,1.00
2023-04-01T10:41:15.549Z,0.95
2023-04-01T10:44:20.708Z,0.90
2023-04-01T10:47:37.284Z,0.90
2023-04-01T10:50:50.673Z,0.90
2023-04-01T10:54:20.195Z,1.00
2023-04-01T10:57:26.975Z,0.88
2023-04-01T11:00:46.000Z,1.00
2023-04-01T11:03:56.006Z,0.90
2023-04-01T11:07:21.346Z,1.08
2023-04-01T11:10:46.871Z,1.10
2023-04-01T11:14:03.729Z,1.00
2023-04-01T11:17:23.680Z,1.30
2023-04-01T11:20:42.811Z,0.90
2023-04-01T11:24:05.736Z,0.90
2023-04-01T11:27:07.102Z,0.98
2023-04-01T11:30:23.734Z,0.90
2023-04-01T11:33:15.477Z,0.80
2023-04-01T11:36:23.263Z,1.10
2023-04-01T11:39:24.899Z,0.90
2023-04-01T11:42:35.827Z,0.90
2023-04-01T11:45:29.706Z,0.80
2023-04-01T11:48:44.937Z,1.00
2023-04-01T11:52:02.472Z,0.90
2023-04-01T11:54:53.157Z,1.08
2023-04-01T11:57:52.981Z,0.80
2023-04-01T12:01:09.333Z,1.00
2023-04-01T12:04:16.604Z,0.90
2023-04-01T12:07:28.737Z,1.00
2023-04-01T12:10:47.380Z,1.10
2023-04-01T12:14:00.440Z,1.00
2023-04-01T12:17:11.751Z,2.00
2023-04-01T12:20:24.341Z,0.90
2023-04-01T12:23:28.185Z,0.80
2023-04-01T12:26:54.078Z,0.88
2023-04-01T12:30:04.168Z,0.95
2023-04-01T12:33:33.682Z,1.00
2023-04-01T12:36:35.011Z,1.90
2023-04-01T12:40:03.058Z,1.02
2023-04-01T12:43:23.528Z,1.00
2023-04-01T12:46:24.217Z,0.90
2023-04-01T12:49:53.178Z,1.00
2023-04-01T12:53:04.304Z,0.95
2023-04-01T12:55:57.273Z,0.93
2023-04-01T12:59:07.685Z,1.00
2023-04-01T13:02:15.134Z,0.98
2023-04-01T13:05:26.180Z,1.00
2023-04-01T13:08:34.394Z,1.00
2023-04-01T13:11:57.323Z,0.98
2023-04-01T13:15:32.547Z,0.90
2023-04-01T13:18:33.880Z,0.85
2023-04-01T13:21:36.127Z,0.90
2023-04-01T13:24:43.304Z,1.00
2023-04-01T13:28:07.833Z,0.93
2023-04-01T13:31:04.391Z,0.90
2023-04-01T13:33:57.292Z,0.90
2023-04-01T13:37:53.612Z,0.80
2023-04-01T13:41:27.612Z,0.95
2023-04-01T13:44:46.116Z,0.90
2023-04-01T13:52:05.673Z,1.00
2023-04-01T13:55:39.278Z,0.90
2023-04-01T13:58:59.029Z,0.90
2023-04-01T14:02:05.991Z,0.90
2023-04-01T14:05:43.986Z,0.90
2023-04-01T14:12:59.351Z,0.90
2023-04-01T14:16:11.433Z,0.90
2023-04-01T14:19:29.968Z,0.90
2023-04-01T14:22:24.974Z,0.80
2023-04-01T14:25:37.427Z,0.88
2023-04-01T14:29:11.230Z,0.80
2023-04-01T14:32:21.619Z,1.00
2023-04-01T14:35:32.555Z,0.80
2023-04-01T14:39:00.609Z,0.90
2023-04-01T14:42:26.308Z,1.00
2023-04-01T14:46:03.536Z,0.90
2023-04-01T14:48:52.317Z,0.90
2023-04-01T14:51:29.575Z,0.90
2023-04-01T14:54:12.190Z,0.90
2023-04-01T14:56:51.822Z,1.00
2023-04-01T14:59:54.554Z,0.95
2023-04-01T15:03:20.593Z,0.93
2023-04-01T15:07:01.672Z,1.00
2023-04-01T15:10:23.733Z,0.90
2023-04-01T15:13:32.643Z,0.90
2023-04-01T15:16:20.075Z,1.00
2023-04-01T15:19:24.497Z,1.00
2023-04-01T15:22:33.834Z,0.90
2023-04-01T15:25:51.593Z,1.00
2023-04-01T15:28:52.207Z,1.00
2023-04-01T15:31:49.289Z,1.10
2023-04-01T15:34:53.245Z,1.00
2023-04-01T15:38:12.658Z,1.10
2023-04-01T15:41:30.371Z,0.93
2023-04-01T15:44:53.408Z,1.00
2023-04-01T15:48:14.982Z,0.90
2023-04-01T15:51:24.912Z,1.15
2023-04-01T15:54:26.429Z,1.08
2023-04-01T15:57:38.924Z,1.10
2023-04-01T16:00:34.693Z,1.00
2023-04-01T16:03:38.244Z,1.02
2023-04-01T16:06:47.076Z,1.00
2023-04-01T16:09:41.062Z,1.00
2023-04-01T16:12:48.090Z,1.08
2023-04-01T16:16:00.252Z,1.23
2023-04-01T16:19:13.784Z,1.10
2023-04-01T16:22:30.729Z,1.02
2023-04-01T16:25:48.507Z,1.23
2023-04-01T16:29:09.492Z,1.30
2023-04-01T16:32:13.777Z,1.77
2023-04-01T16:35:06.800Z,1.10
2023-04-01T16:38:18.439Z,1.30
2023-04-01T16:41:04.620Z,1.00
2023-04-01T16:44:14.650Z,0.90
2023-04-01T16:47:06.716Z,1.10
2023-04-01T16:49:45.929Z,1.05
2023-04-01T16:52:53.084Z,1.20
2023-04-01T16:56:01.834Z,1.30
2023-04-01T16:59:05.051Z,1.52
2023-04-01T17:02:03.217Z,1.40
2023-04-01T17:05:01.934Z,1.45
2023-04-01T17:08:18.618Z,1.40
2023-04-01T17:11:26.044Z,1.85
2023-04-01T17:14:35.423Z,1.50
2023-04-01T17:18:04.408Z,1.55
2023-04-01T17:21:20.082Z,1.40
2023-04-01T17:24:32.908Z,1.20
2023-04-01T17:27:40.623Z,1.35
2023-04-01T17:30:36.612Z,1.60
2023-04-01T17:33:44.749Z,1.63
2023-04-01T17:37:10.845Z,1.20
2023-04-01T17:40:22.718Z,1.50
2023-04-01T17:43:26.733Z,1.40
2023-04-01T17:46:46.236Z,1.30
2023-04-01T17:49:51.103Z,1.60
2023-04-01T17:52:57.332Z,1.45
2023-04-01T17:56:01.843Z,1.40
2023-04-01T17:59:05.880Z,1.35
2023-04-01T18:02:18.085Z,1.30
2023-04-01T18:05:26.270Z,1.30
2023-04-01T18:08:19.106Z,1.60
2023-04-01T18:11:21.845Z,1.98
2023-04-01T18:14:46.384Z,1.70
2023-04-01T18:17:41.232Z,1.58
2023-04-01T18:20:57.008Z,1.40
2023-04-01T18:23:55.529Z,1.50
2023-04-01T18:27:02.431Z,1.42
2023-04-01T18:30:30.795Z,1.70
2023-04-01T18:33:18.789Z,1.60
2023-04-01T18:36:52.916Z,1.50
2023-04-01T18:39:41.944Z,1.80
2023-04-01T18:42:44.190Z,1.80
2023-04-01T18:45:46.874Z,1.92
2023-04-01T18:48:57.822Z,1.80
2023-04-01T18:51:57.011Z,1.80
2023-04-01T18:55:01.096Z,1.90
2023-04-01T18:58:13.290Z,1.48
2023-04-01T19:01:17.127Z,1.55
2023-04-01T19:04:21.385Z,1.80
2023-04-01T19:07:47.922Z,1.40
2023-04-01T19:11:00.758Z,1.60
2023-04-01T19:14:17.108Z,1.50
2023-04-01T19:17:29.187Z,1.73
2023-04-01T19:20:48.760Z,1.58
2023-04-01T19:23:39.861Z,1.88
2023-04-01T19:26:37.562Z,2.38
2023-04-01T19:29:48.439Z,2.42
2023-04-01T19:32:43.690Z,2.03
2023-04-01T19:35:56.931Z,2.03
2023-04-01T19:39:07.123Z,1.58
2023-04-01T19:42:21.004Z,2.10
2023-04-01T19:45:25.433Z,2.20
2023-04-01T19:48:29.146Z,2.03
2023-04-01T19:51:44.087Z,2.10
2023-04-01T19:54:27.527Z,2.67
2023-04-01T19:57:52.431Z,2.17
2023-04-01T20:01:01.767Z,1.83
2023-04-01T20:03:56.450Z,1.50
2023-04-01T20:07:02.527Z,1.40
2023-04-01T20:09:57.481Z,1.52
2023-04-01T20:13:13.489Z,1.63
2023-04-01T20:16:09.451Z,1.85
2023-04-01T20:19:02.834Z,1.52
2023-04-01T20:21:47.006Z,1.40
2023-04-01T20:24:51.804Z,1.90
2023-04-01T20:27:32.013Z,1.40
2023-04-01T20:30:26.063Z,1.65
2023-04-01T20:33:36.182Z,1.20
2023-04-01T20:36:33.384Z,1.30
2023-04-01T20:39:21.519Z,1.50
2023-04-01T20:42:35.732Z,3.88
2023-04-01T20:45:27.838Z,3.25
2023-04-01T20:48:47.460Z,3.55
2023-04-01T20:51:44.689Z,2.08
2023-04-01T20:54:43.735Z,1.80
2023-04-01T20:57:41.556Z,1.63
2023-04-01T21:00:52.432Z,1.60
2023-04-01T21:03:53.159Z,1.40
2023-04-01T21:07:22.849Z,1.40
2023-04-01T21:10:35.621Z,1.40
2023-04-01T21:13:39.536Z,1.17
2023-04-01T21:16:48.601Z,1.60
2023-04-01T21:20:17.528Z,1.50
2023-04-01T21:23:13.393Z,1.50
2023-04-01T21:26:21.950Z,1.30
2023-04-01T21:29:47.186Z,1.50
2023-04-01T21:33:16.424Z,1.30
